sensor_id;sensor_type;location;lat;lon;timestamp;P1;durP1;ratioP1;P2;durP2;ratioP2
18820;SDS011;9539;59.332;18.034;2023-04-01T00:00:03;7.22;;;2.47;;
18820;SDS011;9539;59.332;18.034;2023-04-01T00:02:26;5.57;;;2.28;;
18820;SDS011;9539;59.332;18.034;2023-04-01T00:04:47;2.78;;;2.05;;
18820;SDS011;9539;59.332;18.034;2023-04-01T00:07:09;4.50;;;2.33;;
18820;SDS011;9539;59.332;18.034;2023-04-01T00:09:31;2.60;;;2.20;;
18820;SDS011;9539;59.332;18.034;2023-04-01T00:11:52;3.03;;;2.10;;
18820;SDS011;9539;59.332;18.034;2023-04-01T00:14:14;4.97;;;2.08;;
18820;SDS011;9539;59.332;18.034;2023-04-01T00:16:35;2.38;;;2.17;;
18820;SDS011;9539;59.332;18.034;2023-04-01T00:18:58;2.65;;;1.90;;
18820;SDS011;9539;59.332;18.034;2023-04-01T00:21:21;3.63;;;2.20;;
18820;SDS011;9539;59.332;18.034;2023-04-01T00:23:43;2.50;;;1.95;;
18820;SDS011;9539;59.332;18.034;2023-04-01T00:26:04;6.47;;;2.38;;
18820;SDS011;9539;59.332;18.034;2023-04-01T00:28:26;2.60;;;2.10;;
18820;SDS011;9539;59.332;18.034;2023-04-01T00:30:48;2.60;;;2.00;;
18820;SDS011;9539;59.332;18.034;2023-04-01T00:33:10;3.78;;;2.28;;
18820;SDS011;9539;59.332;18.034;2023-04-01T00:35:33;2.67;;;1.95;;
18820;SDS011;9539;59.332;18.034;2023-04-01T00:37:54;3.55;;;2.05;;
18820;SDS011;9539;59.332;18.034;2023-04-01T00:40:22;3.72;;;1.88;;
18820;SDS011;9539;59.332;18.034;2023-04-01T00:42:44;2.95;;;2.33;;
18820;SDS011;9539;59.332;18.034;2023-04-01T00:47:42;4.28;;;2.03;;
18820;SDS011;9539;59.332;18.034;2023-04-01T00:50:03;2.33;;;2.13;;
18820;SDS011;9539;59.332;18.034;2023-04-01T00:52:27;4.45;;;2.42;;
18820;SDS011;9539;59.332;18.034;2023-04-01T00:54:49;3.22;;;2.00;;
18820;SDS011;9539;59.332;18.034;2023-04-01T00:57:12;4.53;;;2.38;;
18820;SDS011;9539;59.332;18.034;2023-04-01T00:59:35;3.25;;;2.22;;
18820;SDS011;9539;59.332;18.034;2023-04-01T01:01:58;3.75;;;2.42;;
18820;SDS011;9539;59.332;18.034;2023-04-01T01:04:21;3.40;;;2.15;;
18820;SDS011;9539;59.332;18.034;2023-04-01T01:06:44;4.07;;;2.60;;
18820;SDS011;9539;59.332;18.034;2023-04-01T01:09:18;3.65;;;2.28;;
18820;SDS011;9539;59.332;18.034;2023-04-01T01:11:48;4.72;;;2.10;;
18820;SDS011;9539;59.332;18.034;2023-04-01T01:14:15;3.75;;;2.20;;
18820;SDS011;9539;59.332;18.034;2023-04-01T01:16:40;2.55;;;2.20;;
18820;SDS011;9539;59.332;18.034;2023-04-01T01:19:06;2.53;;;1.95;;
18820;SDS011;9539;59.332;18.034;2023-04-01T01:21:33;6.75;;;2.28;;
18820;SDS011;9539;59.332;18.034;2023-04-01T01:24:08;5.78;;;2.47;;
18820;SDS011;9539;59.332;18.034;2023-04-01T01:26:46;3.65;;;2.03;;
18820;SDS011;9539;59.332;18.034;2023-04-01T01:29:12;2.25;;;2.05;;
18820;SDS011;9539;59.332;18.034;2023-04-01T01:31:41;4.30;;;2.00;;
18820;SDS011;9539;59.332;18.034;2023-04-01T01:34:11;5.65;;;2.15;;
18820;SDS011;9539;59.332;18.034;2023-04-01T01:36:37;2.40;;;2.20;;
18820;SDS011;9539;59.332;18.034;2023-04-01T01:39:00;2.83;;;1.83;;
18820;SDS011;9539;59.332;18.034;2023-04-01T01:41:22;2.97;;;1.88;;
18820;SDS011;9539;59.332;18.034;2023-04-01T01:43:46;3.35;;;1.50;;
18820;SDS011;9539;59.332;18.034;2023-04-01T01:46:11;4.32;;;2.25;;
18820;SDS011;9539;59.332;18.034;2023-04-01T01:48:33;5.15;;;2.30;;
18820;SDS011;9539;59.332;18.034;2023-04-01T01:50:55;5.03;;;2.33;;
18820;SDS011;9539;59.332;18.034;2023-04-01T01:53:18;2.15;;;1.98;;
18820;SDS011;9539;59.332;18.034;2023-04-01T01:55:40;3.75;;;2.22;;
18820;SDS011;9539;59.332;18.034;2023-04-01T01:58:05;5.20;;;2.42;;
18820;SDS011;9539;59.332;18.034;2023-04-01T02:00:27;2.55;;;1.85;;
18820;SDS011;9539;59.332;18.034;2023-04-01T02:02:49;4.28;;;2.50;;
18820;SDS011;9539;59.332;18.034;2023-04-01T02:05:11;3.03;;;2.05;;
18820;SDS011;9539;59.332;18.034;2023-04-01T02:07:36;3.65;;;2.10;;
18820;SDS011;9539;59.332;18.034;2023-04-01T02:10:00;2.30;;;2.10;;
18820;SDS011;9539;59.332;18.034;2023-04-01T02:12:22;2.00;;;1.73;;
18820;SDS011;9539;59.332;18.034;2023-04-01T02:14:45;2.58;;;1.90;;
18820;SDS011;9539;59.332;18.034;2023-04-01T02:17:09;2.75;;;1.80;;
18820;SDS011;9539;59.332;18.034;2023-04-01T02:19:32;3.22;;;1.90;;
18820;SDS011;9539;59.332;18.034;2023-04-01T02:21:55;2.72;;;2.15;;
18820;SDS011;9539;59.332;18.034;2023-04-01T02:24:18;2.00;;;1.75;;
18820;SDS011;9539;59.332;18.034;2023-04-01T02:26:43;1.88;;;1.70;;
18820;SDS011;9539;59.332;18.034;2023-04-01T02:29:06;4.18;;;2.20;;
18820;SDS011;9539;59.332;18.034;2023-04-01T02:31:29;3.63;;;1.75;;
18820;SDS011;9539;59.332;18.034;2023-04-01T02:33:51;3.92;;;1.77;;
18820;SDS011;9539;59.332;18.034;2023-04-01T02:36:13;2.70;;;2.10;;
18820;SDS011;9539;59.332;18.034;2023-04-01T02:38:35;2.10;;;1.88;;
18820;SDS011;9539;59.332;18.034;2023-04-01T02:40:58;2.47;;;1.98;;
18820;SDS011;9539;59.332;18.034;2023-04-01T02:43:21;3.72;;;2.15;;
18820;SDS011;9539;59.332;18.034;2023-04-01T02:45:43;2.45;;;1.70;;
18820;SDS011;9539;59.332;18.034;2023-04-01T02:48:05;2.75;;;2.20;;
18820;SDS011;9539;59.332;18.034;2023-04-01T02:50:27;3.15;;;2.05;;
18820;SDS011;9539;59.332;18.034;2023-04-01T02:52:48;3.90;;;2.10;;
18820;SDS011;9539;59.332;18.034;2023-04-01T02:55:10;3.10;;;2.03;;
18820;SDS011;9539;59.332;18.034;2023-04-01T02:57:31;6.28;;;1.83;;
18820;SDS011;9539;59.332;18.034;2023-04-01T02:59:54;3.47;;;2.05;;
18820;SDS011;9539;59.332;18.034;2023-04-01T03:02:16;4.70;;;2.28;;
18820;SDS011;9539;59.332;18.034;2023-04-01T03:04:38;2.78;;;2.10;;
18820;SDS011;9539;59.332;18.034;2023-04-01T03:06:59;1.92;;;1.83;;
18820;SDS011;9539;59.332;18.034;2023-04-01T03:09:21;2.42;;;2.00;;
18820;SDS011;9539;59.332;18.034;2023-04-01T03:11:43;4.03;;;1.98;;
18820;SDS011;9539;59.332;18.034;2023-04-01T03:14:04;2.65;;;2.20;;
18820;SDS011;9539;59.332;18.034;2023-04-01T03:16:28;2.97;;;2.00;;
18820;SDS011;9539;59.332;18.034;2023-04-01T03:18:50;2.03;;;1.75;;
18820;SDS011;9539;59.332;18.034;2023-04-01T03:21:13;2.30;;;1.98;;
18820;SDS011;9539;59.332;18.034;2023-04-01T03:23:35;2.17;;;1.98;;
18820;SDS011;9539;59.332;18.034;2023-04-01T03:25:57;3.40;;;2.35;;
18820;SDS011;9539;59.332;18.034;2023-04-01T03:28:18;2.67;;;2.10;;
18820;SDS011;9539;59.332;18.034;2023-04-01T03:30:40;2.22;;;1.98;;
18820;SDS011;9539;59.332;18.034;2023-04-01T03:33:03;2.72;;;2.00;;
18820;SDS011;9539;59.332;18.034;2023-04-01T03:35:25;4.68;;;2.20;;
18820;SDS011;9539;59.332;18.034;2023-04-01T03:37:46;3.83;;;2.00;;
18820;SDS011;9539;59.332;18.034;2023-04-01T03:40:08;3.97;;;2.05;;
18820;SDS011;9539;59.332;18.034;2023-04-01T03:42:30;2.38;;;1.90;;
18820;SDS011;9539;59.332;18.034;2023-04-01T03:44:52;3.33;;;2.10;;
18820;SDS011;9539;59.332;18.034;2023-04-01T03:47:14;2.88;;;1.67;;
18820;SDS011;9539;59.332;18.034;2023-04-01T03:49:37;2.70;;;1.90;;
18820;SDS011;9539;59.332;18.034;2023-04-01T03:51:58;2.90;;;2.08;;
18820;SDS011;9539;59.332;18.034;2023-04-01T03:54:20;2.60;;;1.92;;
18820;SDS011;9539;59.332;18.034;2023-04-01T03:56:42;2.53;;;2.10;;
18820;SDS011;9539;59.332;18.034;2023-04-01T03:59:04;3.40;;;2.13;;
18820;SDS011;9539;59.332;18.034;2023-04-01T04:01:26;3.85;;;2.28;;
18820;SDS011;9539;59.332;18.034;2023-04-01T04:03:48;3.63;;;2.20;;
18820;SDS011;9539;59.332;18.034;2023-04-01T04:06:12;1.83;;;1.70;;
18820;SDS011;9539;59.332;18.034;2023-04-01T04:08:34;3.03;;;2.13;;
18820;SDS011;9539;59.332;18.034;2023-04-01T04:10:55;3.53;;;2.00;;
18820;SDS011;9539;59.332;18.034;2023-04-01T04:13:17;4.03;;;2.17;;
18820;SDS011;9539;59.332;18.034;2023-04-01T04:15:38;4.10;;;1.90;;
18820;SDS011;9539;59.332;18.034;2023-04-01T04:18:00;2.35;;;1.85;;
18820;SDS011;9539;59.332;18.034;2023-04-01T04:20:22;4.07;;;2.20;;
18820;SDS011;9539;59.332;18.034;2023-04-01T04:22:45;6.53;;;2.05;;
18820;SDS011;9539;59.332;18.034;2023-04-01T04:25:07;2.30;;;2.10;;
18820;SDS011;9539;59.332;18.034;2023-04-01T04:27:28;4.13;;;2.03;;
18820;SDS011;9539;59.332;18.034;2023-04-01T04:29:50;2.38;;;1.63;;
18820;SDS011;9539;59.332;18.034;2023-04-01T04:32:12;5.65;;;2.30;;
18820;SDS011;9539;59.332;18.034;2023-04-01T04:34:33;2.40;;;1.90;;
18820;SDS011;9539;59.332;18.034;2023-04-01T04:36:55;4.53;;;2.30;;
18820;SDS011;9539;59.332;18.034;2023-04-01T04:39:18;2.33;;;2.00;;
18820;SDS011;9539;59.332;18.034;2023-04-01T04:41:40;2.47;;;1.92;;
18820;SDS011;9539;59.332;18.034;2023-04-01T04:44:02;5.30;;;2.20;;
18820;SDS011;9539;59.332;18.034;2023-04-01T04:46:24;3.60;;;1.98;;
18820;SDS011;9539;59.332;18.034;2023-04-01T04:48:46;2.42;;;2.10;;
18820;SDS011;9539;59.332;18.034;2023-04-01T04:51:08;5.05;;;2.00;;
18820;SDS011;9539;59.332;18.034;2023-04-01T04:53:30;10.50;;;2.35;;
18820;SDS011;9539;59.332;18.034;2023-04-01T04:55:53;3.08;;;1.90;;
18820;SDS011;9539;59.332;18.034;2023-04-01T04:58:14;2.38;;;2.00;;
18820;SDS011;9539;59.332;18.034;2023-04-01T05:00:36;2.88;;;1.83;;
18820;SDS011;9539;59.332;18.034;2023-04-01T05:02:58;3.50;;;2.13;;
18820;SDS011;9539;59.332;18.034;2023-04-01T05:05:20;1.73;;;1.63;;
18820;SDS011;9539;59.332;18.034;2023-04-01T05:07:41;3.53;;;1.90;;
18820;SDS011;9539;59.332;18.034;2023-04-01T05:10:03;2.72;;;1.95;;
18820;SDS011;9539;59.332;18.034;2023-04-01T05:12:26;2.10;;;1.80;;
18820;SDS011;9539;59.332;18.034;2023-04-01T05:14:48;5.22;;;2.20;;
18820;SDS011;9539;59.332;18.034;2023-04-01T05:17:09;2.42;;;1.77;;
18820;SDS011;9539;59.332;18.034;2023-04-01T05:19:31;4.28;;;1.80;;
18820;SDS011;9539;59.332;18.034;2023-04-01T05:21:53;4.55;;;1.70;;
18820;SDS011;9539;59.332;18.034;2023-04-01T05:24:14;4.47;;;1.77;;
18820;SDS011;9539;59.332;18.034;2023-04-01T05:26:36;2.35;;;1.85;;
18820;SDS011;9539;59.332;18.034;2023-04-01T05:28:59;2.00;;;1.80;;
18820;SDS011;9539;59.332;18.034;2023-04-01T05:31:21;1.85;;;1.70;;
18820;SDS011;9539;59.332;18.034;2023-04-01T05:33:44;3.03;;;1.70;;
18820;SDS011;9539;59.332;18.034;2023-04-01T05:36:06;5.65;;;1.70;;
18820;SDS011;9539;59.332;18.034;2023-04-01T05:38:28;3.63;;;1.75;;
18820;SDS011;9539;59.332;18.034;2023-04-01T05:40:49;4.25;;;1.88;;
18820;SDS011;9539;59.332;18.034;2023-04-01T05:43:11;2.10;;;1.52;;
18820;SDS011;9539;59.332;18.034;2023-04-01T05:45:34;4.47;;;1.80;;
18820;SDS011;9539;59.332;18.034;2023-04-01T05:47:55;3.63;;;1.80;;
18820;SDS011;9539;59.332;18.034;2023-04-01T05:50:17;3.85;;;1.70;;
18820;SDS011;9539;59.332;18.034;2023-04-01T05:52:39;2.78;;;1.88;;
18820;SDS011;9539;59.332;18.034;2023-04-01T05:55:01;2.95;;;1.95;;
18820;SDS011;9539;59.332;18.034;2023-04-01T05:57:22;3.28;;;1.80;;
18820;SDS011;9539;59.332;18.034;2023-04-01T05:59:44;2.45;;;1.75;;
18820;SDS011;9539;59.332;18.034;2023-04-01T06:02:07;2.75;;;1.60;;
18820;SDS011;9539;59.332;18.034;2023-04-01T06:04:31;2.75;;;1.90;;
18820;SDS011;9539;59.332;18.034;2023-04-01T06:06:54;3.90;;;1.80;;
18820;SDS011;9539;59.332;18.034;2023-04-01T06:09:16;2.25;;;1.80;;
18820;SDS011;9539;59.332;18.034;2023-04-01T06:11:40;2.22;;;1.65;;
18820;SDS011;9539;59.332;18.034;2023-04-01T06:14:10;2.67;;;1.95;;
18820;SDS011;9539;59.332;18.034;2023-04-01T06:16:35;1.67;;;1.42;;
18820;SDS011;9539;59.332;18.034;2023-04-01T06:19:05;2.45;;;1.50;;
18820;SDS011;9539;59.332;18.034;2023-04-01T06:24:15;2.65;;;1.70;;
18820;SDS011;9539;59.332;18.034;2023-04-01T06:26:41;4.68;;;1.70;;
18820;SDS011;9539;59.332;18.034;2023-04-01T06:29:08;1.92;;;1.50;;
18820;SDS011;9539;59.332;18.034;2023-04-01T06:31:39;2.10;;;1.50;;
18820;SDS011;9539;59.332;18.034;2023-04-01T06:34:12;1.55;;;1.42;;
18820;SDS011;9539;59.332;18.034;2023-04-01T06:39:32;3.67;;;1.42;;
18820;SDS011;9539;59.332;18.034;2023-04-01T06:42:07;1.63;;;1.52;;
18820;SDS011;9539;59.332;18.034;2023-04-01T06:44:33;2.55;;;1.50;;
18820;SDS011;9539;59.332;18.034;2023-04-01T06:46:57;3.38;;;1.30;;
18820;SDS011;9539;59.332;18.034;2023-04-01T06:49:24;2.33;;;1.50;;
18820;SDS011;9539;59.332;18.034;2023-04-01T06:51:51;2.67;;;1.40;;
18820;SDS011;9539;59.332;18.034;2023-04-01T06:54:16;1.77;;;1.33;;
18820;SDS011;9539;59.332;18.034;2023-04-01T06:56:39;2.95;;;1.25;;
18820;SDS011;9539;59.332;18.034;2023-04-01T06:59:04;1.90;;;1.40;;
18820;SDS011;9539;59.332;18.034;2023-04-01T07:01:28;4.10;;;1.58;;
18820;SDS011;9539;59.332;18.034;2023-04-01T07:03:52;3.45;;;1.58;;
18820;SDS011;9539;59.332;18.034;2023-04-01T07:06:23;1.52;;;1.30;;
18820;SDS011;9539;59.332;18.034;2023-04-01T07:08:47;2.05;;;1.40;;
18820;SDS011;9539;59.332;18.034;2023-04-01T07:11:11;2.35;;;1.42;;
18820;SDS011;9539;59.332;18.034;2023-04-01T07:13:34;2.42;;;1.40;;
18820;SDS011;9539;59.332;18.034;2023-04-01T07:16:04;3.55;;;1.40;;
18820;SDS011;9539;59.332;18.034;2023-04-01T07:18:29;2.55;;;1.60;;
18820;SDS011;9539;59.332;18.034;2023-04-01T07:20:52;5.45;;;1.30;;
18820;SDS011;9539;59.332;18.034;2023-04-01T07:23:17;4.18;;;1.45;;
18820;SDS011;9539;59.332;18.034;2023-04-01T07:25:43;5.32;;;1.58;;
18820;SDS011;9539;59.332;18.034;2023-04-01T07:28:10;3.10;;;1.48;;
18820;SDS011;9539;59.332;18.034;2023-04-01T07:30:33;1.58;;;1.30;;
18820;SDS011;9539;59.332;18.034;2023-04-01T07:33:02;4.32;;;1.67;;
18820;SDS011;9539;59.332;18.034;2023-04-01T07:35:26;6.20;;;1.60;;
18820;SDS011;9539;59.332;18.034;2023-04-01T07:37:53;2.30;;;1.40;;
18820;SDS011;9539;59.332;18.034;2023-04-01T07:40:23;1.73;;;1.10;;
18820;SDS011;9539;59.332;18.034;2023-04-01T07:42:49;3.22;;;1.30;;
18820;SDS011;9539;59.332;18.034;2023-04-01T07:45:16;2.13;;;1.17;;
18820;SDS011;9539;59.332;18.034;2023-04-01T07:47:41;2.42;;;1.40;;
18820;SDS011;9539;59.332;18.034;2023-04-01T07:50:09;2.60;;;1.02;;
18820;SDS011;9539;59.332;18.034;2023-04-01T07:52:34;1.67;;;1.30;;
18820;SDS011;9539;59.332;18.034;2023-04-01T07:54:57;2.85;;;1.50;;
18820;SDS011;9539;59.332;18.034;2023-04-01T07:57:24;2.35;;;1.40;;
18820;SDS011;9539;59.332;18.034;2023-04-01T07:59:51;5.28;;;1.40;;
18820;SDS011;9539;59.332;18.034;2023-04-01T08:02:20;2.50;;;1.30;;
18820;SDS011;9539;59.332;18.034;2023-04-01T08:04:50;2.05;;;1.40;;
18820;SDS011;9539;59.332;18.034;2023-04-01T08:07:17;3.92;;;1.40;;
18820;SDS011;9539;59.332;18.034;2023-04-01T08:09:41;1.60;;;1.33;;
18820;SDS011;9539;59.332;18.034;2023-04-01T08:12:08;1.65;;;1.20;;
18820;SDS011;9539;59.332;18.034;2023-04-01T08:14:36;5.88;;;1.60;;
18820;SDS011;9539;59.332;18.034;2023-04-01T08:17:02;2.15;;;1.45;;
18820;SDS011;9539;59.332;18.034;2023-04-01T08:19:29;4.53;;;1.40;;
18820;SDS011;9539;59.332;18.034;2023-04-01T08:21:52;2.75;;;1.30;;
18820;SDS011;9539;59.332;18.034;2023-04-01T08:24:16;3.20;;;1.40;;
18820;SDS011;9539;59.332;18.034;2023-04-01T08:26:40;3.35;;;1.30;;
18820;SDS011;9539;59.332;18.034;2023-04-01T08:29:05;2.13;;;1.30;;
18820;SDS011;9539;59.332;18.034;2023-04-01T08:31:32;6.70;;;1.35;;
18820;SDS011;9539;59.332;18.034;2023-04-01T08:33:55;5.88;;;1.40;;
18820;SDS011;9539;59.332;18.034;2023-04-01T08:36:18;4.03;;;1.40;;
18820;SDS011;9539;59.332;18.034;2023-04-01T08:38:42;2.45;;;1.20;;
18820;SDS011;9539;59.332;18.034;2023-04-01T08:49:48;1.77;;;1.40;;
18820;SDS011;9539;59.332;18.034;2023-04-01T08:52:25;2.08;;;1.30;;
18820;SDS011;9539;59.332;18.034;2023-04-01T08:54:58;2.33;;;1.42;;
18820;SDS011;9539;59.332;18.034;2023-04-01T08:57:28;3.17;;;1.40;;
18820;SDS011;9539;59.332;18.034;2023-04-01T08:59:57;3.10;;;1.40;;
18820;SDS011;9539;59.332;18.034;2023-04-01T09:02:34;3.78;;;1.60;;
18820;SDS011;9539;59.332;18.034;2023-04-01T09:05:16;3.58;;;1.40;;
18820;SDS011;9539;59.332;18.034;2023-04-01T09:07:40;1.90;;;1.17;;
18820;SDS011;9539;59.332;18.034;2023-04-01T09:10:18;2.65;;;1.40;;
18820;SDS011;9539;59.332;18.034;2023-04-01T09:12:45;4.35;;;1.40;;
18820;SDS011;9539;59.332;18.034;2023-04-01T09:17:51;4.18;;;1.38;;
18820;SDS011;9539;59.332;18.034;2023-04-01T09:20:32;2.78;;;1.30;;
18820;SDS011;9539;59.332;18.034;2023-04-01T09:23:10;1.67;;;1.20;;
18820;SDS011;9539;59.332;18.034;2023-04-01T09:25:49;2.30;;;1.20;;
18820;SDS011;9539;59.332;18.034;2023-04-01T09:28:12;1.30;;;1.20;;
18820;SDS011;9539;59.332;18.034;2023-04-01T09:30:52;3.38;;;1.15;;
18820;SDS011;9539;59.332;18.034;2023-04-01T09:33:38;3.38;;;1.42;;
18820;SDS011;9539;59.332;18.034;2023-04-01T09:36:07;2.08;;;1.30;;
18820;SDS011;9539;59.332;18.034;2023-04-01T09:38:36;6.05;;;1.30;;
18820;SDS011;9539;59.332;18.034;2023-04-01T09:41:02;1.77;;;1.15;;
18820;SDS011;9539;59.332;18.034;2023-04-01T09:43:43;3.50;;;1.10;;
18820;SDS011;9539;59.332;18.034;2023-04-01T09:46:15;6.63;;;1.20;;
18820;SDS011;9539;59.332;18.034;2023-04-01T09:51:27;1.40;;;1.20;;
18820;SDS011;9539;59.332;18.034;2023-04-01T09:53:55;1.63;;;1.00;;
18820;SDS011;9539;59.332;18.034;2023-04-01T09:56:29;2.20;;;1.17;;
18820;SDS011;9539;59.332;18.034;2023-04-01T09:59:01;2.90;;;1.20;;
18820;SDS011;9539;59.332;18.034;2023-04-01T10:01:46;1.67;;;1.10;;
18820;SDS011;9539;59.332;18.034;2023-04-01T10:07:06;1.88;;;1.15;;
18820;SDS011;9539;59.332;18.034;2023-04-01T10:15:26;1.23;;;1.13;;
18820;SDS011;9539;59.332;18.034;2023-04-01T10:20:45;4.93;;;1.15;;
18820;SDS011;9539;59.332;18.034;2023-04-01T10:26:00;1.92;;;1.27;;
18820;SDS011;9539;59.332;18.034;2023-04-01T10:28:33;2.50;;;1.10;;
18820;SDS011;9539;59.332;18.034;2023-04-01T10:33:46;1.75;;;1.10;;
18820;SDS011;9539;59.332;18.034;2023-04-01T10:36:35;3.10;;;1.00;;
18820;SDS011;9539;59.332;18.034;2023-04-01T10:41:45;1.15;;;0.90;;
18820;SDS011;9539;59.332;18.034;2023-04-01T10:49:44;0.90;;;0.90;;
18820;SDS011;9539;59.332;18.034;2023-04-01T10:52:12;0.80;;;0.80;;
18820;SDS011;9539;59.332;18.034;2023-04-01T10:54:46;1.48;;;1.00;;
18820;SDS011;9539;59.332;18.034;2023-04-01T10:57:12;1.00;;;0.95;;
18820;SDS011;9539;59.332;18.034;2023-04-01T11:05:28;1.67;;;1.00;;
18820;SDS011;9539;59.332;18.034;2023-04-01T11:11:00;3.03;;;1.10;;
18820;SDS011;9539;59.332;18.034;2023-04-01T11:26:55;1.20;;;1.10;;
18820;SDS011;9539;59.332;18.034;2023-04-01T11:29:31;1.70;;;1.00;;
18820;SDS011;9539;59.332;18.034;2023-04-01T11:31:58;1.58;;;1.20;;
18820;SDS011;9539;59.332;18.034;2023-04-01T11:34:34;1.42;;;0.90;;
18820;SDS011;9539;59.332;18.034;2023-04-01T11:37:01;1.95;;;1.00;;
18820;SDS011;9539;59.332;18.034;2023-04-01T11:39:29;1.10;;;1.00;;
18820;SDS011;9539;59.332;18.034;2023-04-01T11:41:56;2.67;;;0.95;;
18820;SDS011;9539;59.332;18.034;2023-04-01T11:44:21;1.38;;;0.80;;
18820;SDS011;9539;59.332;18.034;2023-04-01T11:46:47;1.30;;;0.90;;
18820;SDS011;9539;59.332;18.034;2023-04-01T11:49:18;1.17;;;0.85;;
18820;SDS011;9539;59.332;18.034;2023-04-01T11:51:45;1.20;;;1.02;;
18820;SDS011;9539;59.332;18.034;2023-04-01T11:54:15;0.90;;;0.90;;
18820;SDS011;9539;59.332;18.034;2023-04-01T11:56:49;1.48;;;1.00;;
18820;SDS011;9539;59.332;18.034;2023-04-01T11:59:26;1.50;;;0.70;;
18820;SDS011;9539;59.332;18.034;2023-04-01T12:01:54;1.85;;;1.15;;
18820;SDS011;9539;59.332;18.034;2023-04-01T12:04:30;1.42;;;1.08;;
18820;SDS011;9539;59.332;18.034;2023-04-01T12:06:57;1.00;;;0.70;;
18820;SDS011;9539;59.332;18.034;2023-04-01T12:09:21;0.88;;;0.88;;
18820;SDS011;9539;59.332;18.034;2023-04-01T12:11:48;0.70;;;0.70;;
18820;SDS011;9539;59.332;18.034;2023-04-01T12:14:14;0.90;;;0.77;;
18820;SDS011;9539;59.332;18.034;2023-04-01T12:16:51;1.58;;;1.10;;
18820;SDS011;9539;59.332;18.034;2023-04-01T12:19:17;2.60;;;1.30;;
18820;SDS011;9539;59.332;18.034;2023-04-01T12:21:42;2.58;;;1.08;;
18820;SDS011;9539;59.332;18.034;2023-04-01T12:26:59;1.48;;;0.80;;
18820;SDS011;9539;59.332;18.034;2023-04-01T12:32:02;3.10;;;1.38;;
18820;SDS011;9539;59.332;18.034;2023-04-01T12:34:31;2.25;;;1.15;;
18820;SDS011;9539;59.332;18.034;2023-04-01T12:36:58;2.58;;;1.23;;
18820;SDS011;9539;59.332;18.034;2023-04-01T12:39:24;2.25;;;1.05;;
18820;SDS011;9539;59.332;18.034;2023-04-01T12:41:53;0.70;;;0.70;;
18820;SDS011;9539;59.332;18.034;2023-04-01T12:44:20;1.45;;;0.85;;
18820;SDS011;9539;59.332;18.034;2023-04-01T12:46:52;0.88;;;0.88;;
18820;SDS011;9539;59.332;18.034;2023-04-01T12:49:21;1.17;;;0.90;;
18820;SDS011;9539;59.332;18.034;2023-04-01T12:51:51;0.90;;;0.85;;
18820;SDS011;9539;59.332;18.034;2023-04-01T12:54:26;1.15;;;0.80;;
18820;SDS011;9539;59.332;18.034;2023-04-01T12:57:01;0.93;;;0.93;;
18820;SDS011;9539;59.332;18.034;2023-04-01T12:59:28;0.90;;;0.82;;
18820;SDS011;9539;59.332;18.034;2023-04-01T13:01:59;2.78;;;0.93;;
18820;SDS011;9539;59.332;18.034;2023-04-01T13:07:10;2.75;;;0.80;;
18820;SDS011;9539;59.332;18.034;2023-04-01T13:09:39;0.70;;;0.70;;
18820;SDS011;9539;59.332;18.034;2023-04-01T13:12:10;1.92;;;1.08;;
18820;SDS011;9539;59.332;18.034;2023-04-01T13:17:14;1.00;;;0.90;;
18820;SDS011;9539;59.332;18.034;2023-04-01T13:19:38;2.20;;;0.98;;
18820;SDS011;9539;59.332;18.034;2023-04-01T13:22:07;1.42;;;0.90;;
18820;SDS011;9539;59.332;18.034;2023-04-01T13:24:35;0.90;;;0.85;;
18820;SDS011;9539;59.332;18.034;2023-04-01T13:27:01;0.93;;;0.88;;
18820;SDS011;9539;59.332;18.034;2023-04-01T13:29:25;0.80;;;0.80;;
18820;SDS011;9539;59.332;18.034;2023-04-01T13:31:55;0.73;;;0.73;;
18820;SDS011;9539;59.332;18.034;2023-04-01T13:34:27;1.02;;;0.80;;
18820;SDS011;9539;59.332;18.034;2023-04-01T13:36:56;1.27;;;0.70;;
18820;SDS011;9539;59.332;18.034;2023-04-01T13:39:29;1.83;;;0.90;;
18820;SDS011;9539;59.332;18.034;2023-04-01T13:41:59;1.40;;;1.00;;
18820;SDS011;9539;59.332;18.034;2023-04-01T13:44:28;1.00;;;1.00;;
18820;SDS011;9539;59.332;18.034;2023-04-01T13:46:57;1.95;;;0.80;;
18820;SDS011;9539;59.332;18.034;2023-04-01T13:49:38;0.95;;;0.80;;
18820;SDS011;9539;59.332;18.034;2023-04-01T13:52:08;1.00;;;0.90;;
18820;SDS011;9539;59.332;18.034;2023-04-01T13:57:20;1.50;;;1.13;;
18820;SDS011;9539;59.332;18.034;2023-04-01T13:59:59;3.40;;;0.90;;
18820;SDS011;9539;59.332;18.034;2023-04-01T14:02:31;1.25;;;1.00;;
18820;SDS011;9539;59.332;18.034;2023-04-01T14:05:03;3.03;;;1.10;;
18820;SDS011;9539;59.332;18.034;2023-04-01T14:07:38;2.15;;;0.90;;
18820;SDS011;9539;59.332;18.034;2023-04-01T14:10:05;2.00;;;1.00;;
18820;SDS011;9539;59.332;18.034;2023-04-01T14:12:31;2.10;;;0.90;;
18820;SDS011;9539;59.332;18.034;2023-04-01T14:15:03;1.00;;;0.90;;
18820;SDS011;9539;59.332;18.034;2023-04-01T14:17:30;1.25;;;0.90;;
18820;SDS011;9539;59.332;18.034;2023-04-01T14:20:02;0.90;;;0.90;;
18820;SDS011;9539;59.332;18.034;2023-04-01T14:22:29;1.67;;;1.15;;
18820;SDS011;9539;59.332;18.034;2023-04-01T14:25:12;1.13;;;1.00;;
18820;SDS011;9539;59.332;18.034;2023-04-01T14:27:42;1.20;;;1.10;;
18820;SDS011;9539;59.332;18.034;2023-04-01T14:30:15;0.90;;;0.90;;
18820;SDS011;9539;59.332;18.034;2023-04-01T14:32:40;0.70;;;0.70;;
18820;SDS011;9539;59.332;18.034;2023-04-01T14:35:14;1.02;;;0.95;;
18820;SDS011;9539;59.332;18.034;2023-04-01T14:40:20;0.73;;;0.73;;
18820;SDS011;9539;59.332;18.034;2023-04-01T14:48:17;1.20;;;0.80;;
18820;SDS011;9539;59.332;18.034;2023-04-01T14:50:43;1.23;;;0.80;;
18820;SDS011;9539;59.332;18.034;2023-04-01T14:53:11;0.80;;;0.80;;
18820;SDS011;9539;59.332;18.034;2023-04-01T14:55:34;1.00;;;0.90;;
18820;SDS011;9539;59.332;18.034;2023-04-01T14:57:58;3.00;;;1.00;;
18820;SDS011;9539;59.332;18.034;2023-04-01T15:00:20;0.88;;;0.88;;
18820;SDS011;9539;59.332;18.034;2023-04-01T15:02:51;1.17;;;1.00;;
18820;SDS011;9539;59.332;18.034;2023-04-01T15:05:26;3.88;;;1.00;;
18820;SDS011;9539;59.332;18.034;2023-04-01T15:10:31;1.50;;;0.90;;
18820;SDS011;9539;59.332;18.034;2023-04-01T15:12:56;2.13;;;1.02;;
18820;SDS011;9539;59.332;18.034;2023-04-01T15:15:28;2.92;;;1.17;;
18820;SDS011;9539;59.332;18.034;2023-04-01T15:17:57;2.10;;;1.10;;
18820;SDS011;9539;59.332;18.034;2023-04-01T15:20:23;0.68;;;0.68;;
18820;SDS011;9539;59.332;18.034;2023-04-01T15:22:57;3.17;;;1.20;;
18820;SDS011;9539;59.332;18.034;2023-04-01T15:25:25;3.95;;;1.30;;
18820;SDS011;9539;59.332;18.034;2023-04-01T15:27:50;2.42;;;1.35;;
18820;SDS011;9539;59.332;18.034;2023-04-01T15:32:56;0.80;;;0.80;;
18820;SDS011;9539;59.332;18.034;2023-04-01T15:35:24;1.45;;;1.05;;
18820;SDS011;9539;59.332;18.034;2023-04-01T15:37:49;1.95;;;1.20;;
18820;SDS011;9539;59.332;18.034;2023-04-01T15:40:17;1.52;;;1.00;;
18820;SDS011;9539;59.332;18.034;2023-04-01T15:42:44;1.10;;;1.00;;
18820;SDS011;9539;59.332;18.034;2023-04-01T15:45:16;2.58;;;0.90;;
18820;SDS011;9539;59.332;18.034;2023-04-01T15:47:39;1.85;;;0.85;;
18820;SDS011;9539;59.332;18.034;2023-04-01T15:50:24;2.53;;;1.02;;
18820;SDS011;9539;59.332;18.034;2023-04-01T15:52:49;4.72;;;1.30;;
18820;SDS011;9539;59.332;18.034;2023-04-01T15:55:19;1.98;;;1.10;;
18820;SDS011;9539;59.332;18.034;2023-04-01T15:57:44;2.10;;;1.25;;
18820;SDS011;9539;59.332;18.034;2023-04-01T16:00:10;1.85;;;1.17;;
18820;SDS011;9539;59.332;18.034;2023-04-01T16:02:33;2.88;;;1.40;;
18820;SDS011;9539;59.332;18.034;2023-04-01T16:04:57;5.63;;;1.70;;
18820;SDS011;9539;59.332;18.034;2023-04-01T16:07:23;5.28;;;1.10;;
18820;SDS011;9539;59.332;18.034;2023-04-01T16:09:59;2.20;;;1.00;;
18820;SDS011;9539;59.332;18.034;2023-04-01T16:12:29;1.77;;;1.00;;
18820;SDS011;9539;59.332;18.034;2023-04-01T16:14:56;2.55;;;1.30;;
18820;SDS011;9539;59.332;18.034;2023-04-01T16:17:25;1.50;;;1.10;;